Time;durP1;ratioP1;P1;durP2;ratioP2;P2;SDS_P1;SDS_P2;PMS_P1;PMS_P2;Temp;Humidity;BMP_temperature;BMP_pressure;BME280_temperature;BME280_humidity;BME280_pressure;Samples;Min_cycle;Max_cycle;Signal;HPM_P1;HPM_P2
2024/01/06 00:00:55;;;;;;;4.13;1.63;;;7.10;1.00;;;;;;5031869;28;20208;-85
2024/01/06 00:03:22;;;;;;;2.00;1.33;;;7.00;1.00;;;;;;5039656;28;20559;-85
2024/01/06 00:05:48;;;;;;;2.57;1.53;;;7.00;1.00;;;;;;5039461;28;20204;-83
2024/01/06 00:08:15;;;;;;;2.87;1.30;;;7.10;1.00;;;;;;5049914;28;20572;-82
2024/01/06 00:10:42;;;;;;;4.13;1.20;;;7.00;1.00;;;;;;5039502;28;20577;-83
2024/01/06 00:13:09;;;;;;;3.50;1.53;;;6.90;1.00;;;;;;5040188;28;20752;-83
2024/01/06 00:15:37;;;;;;;3.43;1.10;;;6.90;33.70;;;;;;5039443;28;20653;-83
2024/01/06 00:18:04;;;;;;;3.90;1.30;;;7.00;1.00;;;;;;5037746;28;20293;-84
2024/01/06 00:20:31;;;;;;;2.83;1.30;;;7.00;1.00;;;;;;5032825;28;20201;-83
2024/01/06 00:22:58;;;;;;;3.40;1.50;;;7.00;1.00;;;;;;5045276;28;20230;-83
2024/01/06 00:25:25;;;;;;;4.70;1.47;;;7.00;1.00;;;;;;5045730;28;20212;-85
2024/01/06 00:27:52;;;;;;;3.33;1.70;;;6.90;99.90;;;;;;5040089;28;20211;-85
2024/01/06 00:30:19;;;;;;;3.07;1.50;;;6.90;99.90;;;;;;5036973;28;20219;-85
2024/01/06 00:32:47;;;;;;;2.60;1.70;;;6.90;99.90;;;;;;5036496;28;20230;-84
2024/01/06 00:35:14;;;;;;;4.17;1.70;;;6.90;99.90;;;;;;5033817;28;20214;-84
2024/01/06 00:37:41;;;;;;;4.60;1.40;;;6.90;99.90;;;;;;5040038;28;20200;-86
2024/01/06 00:40:08;;;;;;;2.87;1.50;;;6.80;99.90;;;;;;5033013;28;20724;-85
2024/01/06 00:42:35;;;;;;;2.70;1.53;;;6.80;99.90;;;;;;5029711;28;20235;-84
2024/01/06 00:45:02;;;;;;;5.00;1.60;;;6.70;1.00;;;;;;5036048;28;20203;-84
2024/01/06 00:47:29;;;;;;;4.67;1.63;;;6.60;38.40;;;;;;5034885;28;20253;-84
2024/01/06 00:49:57;;;;;;;4.47;1.80;;;6.60;99.90;;;;;;5035508;28;20234;-84
2024/01/06 00:52:24;;;;;;;2.83;1.60;;;6.60;1.00;;;;;;5037700;28;20206;-83
2024/01/06 00:54:50;;;;;;;3.80;1.47;;;6.60;1.00;;;;;;5034361;28;20201;-83
2024/01/06 00:57:17;;;;;;;4.03;1.70;;;6.50;1.60;;;;;;5026811;28;20200;-83
2024/01/06 00:59:44;;;;;;;1.73;1.53;;;6.50;20.30;;;;;;5035007;28;20203;-84
2024/01/06 01:02:11;;;;;;;3.93;2.30;;;6.60;1.00;;;;;;5035044;28;20192;-83
2024/01/06 01:04:37;;;;;;;5.07;1.87;;;6.50;99.90;;;;;;5034124;28;20318;-83
2024/01/06 01:07:06;;;;;;;3.03;1.67;;;6.50;1.00;;;;;;5042430;28;20610;-83
2024/01/06 01:09:32;;;;;;;4.70;2.00;;;6.50;1.00;;;;;;5033859;28;20226;-84
2024/01/06 01:11:59;;;;;;;2.40;1.60;;;6.40;1.00;;;;;;5030505;28;20222;-83
2024/01/06 01:14:26;;;;;;;7.77;1.90;;;6.40;79.70;;;;;;5041442;28;20311;-85
2024/01/06 01:16:53;;;;;;;5.50;1.90;;;6.30;1.00;;;;;;5040133;28;20244;-84
2024/01/06 01:19:19;;;;;;;3.37;1.80;;;6.30;99.90;;;;;;5039686;28;20211;-84
2024/01/06 01:21:46;;;;;;;4.97;1.67;;;6.20;1.00;;;;;;5042513;28;20205;-84
2024/01/06 01:24:14;;;;;;;2.63;1.70;;;6.20;1.00;;;;;;5044401;28;20221;-84
2024/01/06 01:26:41;;;;;;;3.47;1.67;;;6.30;1.00;;;;;;5041291;28;20225;-85
2024/01/06 01:29:08;;;;;;;3.80;1.90;;;6.20;99.90;;;;;;5039926;28;20702;-86
2024/01/06 01:31:35;;;;;;;3.93;1.70;;;6.30;1.00;;;;;;5034894;28;20685;-84
2024/01/06 01:34:02;;;;;;;2.87;1.80;;;6.20;1.00;;;;;;5042335;28;20231;-83
2024/01/06 01:36:28;;;;;;;4.17;1.90;;;6.20;1.00;;;;;;5035460;28;20249;-84
2024/01/06 01:38:55;;;;;;;4.53;1.90;;;6.10;1.00;;;;;;5042831;28;20203;-84
2024/01/06 01:41:23;;;;;;;5.37;2.03;;;6.20;91.20;;;;;;5033994;28;20198;-83
2024/01/06 01:43:57;;;;;;;4.20;2.03;;;6.10;99.90;;;;;;5033100;28;20720;-83
2024/01/06 01:46:26;;;;;;;3.80;1.77;;;6.10;99.90;;;;;;5034090;28;20581;-83
2024/01/06 01:48:53;;;;;;;7.30;2.27;;;6.10;99.90;;;;;;5035593;28;20214;-84
2024/01/06 01:51:21;;;;;;;2.10;1.70;;;6.00;99.90;;;;;;5034435;28;20233;-83
2024/01/06 01:53:48;;;;;;;4.50;2.00;;;6.00;99.90;;;;;;5035729;28;20646;-85
2024/01/06 01:56:15;;;;;;;2.90;1.70;;;6.00;99.90;;;;;;5036887;28;20681;-83
2024/01/06 01:58:43;;;;;;;1.67;1.57;;;6.00;99.90;;;;;;5035986;28;20202;-83
2024/01/06 02:01:10;;;;;;;5.87;1.97;;;6.00;99.90;;;;;;5034389;28;20200;-85
2024/01/06 02:03:37;;;;;;;3.63;1.80;;;6.00;99.90;;;;;;5035099;28;20219;-84
2024/01/06 02:06:04;;;;;;;4.57;2.10;;;6.10;99.90;;;;;;5033167;28;20222;-87
2024/01/06 02:08:31;;;;;;;4.57;2.00;;;6.10;99.90;;;;;;5034011;28;20196;-84
2024/01/06 02:10:58;;;;;;;3.07;1.70;;;6.10;99.90;;;;;;5036429;28;20227;-85
2024/01/06 02:13:25;;;;;;;4.77;2.13;;;6.00;99.90;;;;;;5031837;28;20215;-84
2024/01/06 02:15:54;;;;;;;3.10;1.50;;;6.00;99.90;;;;;;5042694;28;20208;-84
2024/01/06 02:18:21;;;;;;;2.13;1.80;;;6.10;99.90;;;;;;5047625;28;20206;-84
2024/01/06 02:20:50;;;;;;;2.33;2.10;;;6.10;99.90;;;;;;5046146;28;20226;-84
2024/01/06 02:23:18;;;;;;;5.77;1.50;;;6.00;99.90;;;;;;5039056;28;20230;-85
2024/01/06 02:25:45;;;;;;;3.23;1.80;;;6.00;99.90;;;;;;5044138;28;20205;-85
2024/01/06 02:28:11;;;;;;;4.37;2.17;;;6.00;99.90;;;;;;5032229;28;20208;-84
2024/01/06 02:30:38;;;;;;;4.47;2.20;;;6.00;99.90;;;;;;5042036;28;20218;-83
2024/01/06 02:33:05;;;;;;;5.07;2.27;;;6.10;99.90;;;;;;5037501;28;20246;-85
2024/01/06 02:35:32;;;;;;;2.93;1.73;;;6.30;1.00;;;;;;5039370;28;20650;-84
2024/01/06 02:37:59;;;;;;;3.13;2.00;;;6.30;99.90;;;;;;5035602;28;20215;-83
2024/01/06 02:40:27;;;;;;;3.97;1.97;;;6.60;1.00;;;;;;5039039;28;20202;-85
2024/01/06 02:42:54;;;;;;;3.40;1.73;;;6.30;1.00;;;;;;5036811;28;20227;-85
2024/01/06 02:45:20;;;;;;;3.10;1.73;;;6.40;99.90;;;;;;5036947;28;20590;-84
2024/01/06 02:47:47;;;;;;;3.47;2.17;;;6.40;1.00;;;;;;5040792;28;20215;-84
2024/01/06 02:50:14;;;;;;;4.27;1.83;;;6.40;1.00;;;;;;5040992;28;20227;-84
2024/01/06 02:52:41;;;;;;;4.53;1.90;;;6.30;1.00;;;;;;5042857;28;20218;-84
2024/01/06 02:55:08;;;;;;;5.43;1.90;;;6.30;1.00;;;;;;5040187;28;20203;-84
2024/01/06 02:57:38;;;;;;;2.93;2.27;;;6.30;1.00;;;;;;5037310;28;20199;-83
2024/01/06 03:00:06;;;;;;;7.17;2.03;;;6.40;99.90;;;;;;5037821;28;20191;-83
2024/01/06 03:02:33;;;;;;;6.40;2.13;;;6.40;1.00;;;;;;5036279;28;20860;-83
2024/01/06 03:05:00;;;;;;;3.47;2.10;;;6.40;1.00;;;;;;5034092;28;20252;-84
2024/01/06 03:07:26;;;;;;;3.63;2.27;;;6.40;1.00;;;;;;5036156;28;20286;-86
2024/01/06 03:09:53;;;;;;;5.47;2.20;;;6.40;1.00;;;;;;5036459;28;20227;-84
2024/01/06 03:12:20;;;;;;;3.97;2.20;;;6.40;1.00;;;;;;5037066;28;20200;-83
2024/01/06 03:14:49;;;;;;;2.80;2.17;;;6.40;1.00;;;;;;5036601;28;20294;-85
2024/01/06 03:17:15;;;;;;;3.40;2.13;;;6.30;1.00;;;;;;5050027;28;20338;-85
2024/01/06 03:19:42;;;;;;;5.33;2.43;;;6.30;99.90;;;;;;5042761;28;20286;-83
2024/01/06 03:22:09;;;;;;;7.97;3.83;;;6.30;99.90;;;;;;5036545;28;20212;-84
2024/01/06 03:24:36;;;;;;;13.57;6.30;;;6.30;99.90;;;;;;5041377;28;20309;-83
2024/01/06 03:27:02;;;;;;;12.67;6.67;;;6.10;99.90;;;;;;5042392;28;20207;-83
2024/01/06 03:29:29;;;;;;;13.67;7.70;;;6.00;1.00;;;;;;5041285;28;20207;-84
2024/01/06 03:31:58;;;;;;;12.13;6.73;;;5.90;99.90;;;;;;5041845;28;20203;-83
2024/01/06 03:34:24;;;;;;;15.43;8.07;;;5.80;99.90;;;;;;5043560;28;20223;-82
2024/01/06 03:36:51;;;;;;;17.17;9.50;;;5.80;99.90;;;;;;5041972;28;20200;-84
2024/01/06 03:39:18;;;;;;;18.30;9.93;;;5.60;99.90;;;;;;5042971;28;20206;-86
2024/01/06 03:41:45;;;;;;;19.97;10.73;;;5.50;99.90;;;;;;5042540;28;20214;-84
2024/01/06 03:44:11;;;;;;;21.40;10.80;;;5.30;99.90;;;;;;5038293;28;20756;-83
2024/01/06 03:46:38;;;;;;;21.50;10.43;;;5.20;99.90;;;;;;5034672;28;20203;-84
2024/01/06 03:49:06;;;;;;;22.20;11.77;;;5.10;99.90;;;;;;5036971;28;20211;-83
2024/01/06 03:51:33;;;;;;;20.77;11.23;;;5.10;99.90;;;;;;5037684;28;20223;-85
2024/01/06 03:54:00;;;;;;;24.27;12.07;;;5.10;99.90;;;;;;5031737;28;20223;-85
2024/01/06 03:56:27;;;;;;;24.13;11.40;;;5.00;99.90;;;;;;5036558;28;20253;-83
2024/01/06 03:58:54;;;;;;;21.80;10.57;;;5.00;99.90;;;;;;5036960;28;20548;-83
2024/01/06 04:01:21;;;;;;;22.00;10.70;;;4.90;99.90;;;;;;5039685;28;20532;-83
2024/01/06 04:03:48;;;;;;;22.07;11.23;;;4.90;99.90;;;;;;5034022;28;20712;-83
2024/01/06 04:06:16;;;;;;;23.87;11.17;;;4.80;99.90;;;;;;5038793;28;20202;-84
2024/01/06 04:08:43;;;;;;;20.17;10.70;;;4.80;99.90;;;;;;5040265;28;20206;-84
2024/01/06 04:11:09;;;;;;;21.37;10.47;;;4.80;99.90;;;;;;5039362;28;20227;-83
2024/01/06 04:13:36;;;;;;;21.80;11.60;;;4.80;99.90;;;;;;5036416;28;20323;-82
2024/01/06 04:16:03;;;;;;;22.70;11.50;;;4.80;99.90;;;;;;5035707;28;20216;-84
2024/01/06 04:18:30;;;;;;;21.30;10.97;;;4.80;99.90;;;;;;5039088;28;20204;-83
2024/01/06 04:20:57;;;;;;;20.20;11.23;;;4.80;99.90;;;;;;5035894;28;20218;-83
2024/01/06 04:23:25;;;;;;;20.67;11.20;;;4.80;99.90;;;;;;5042350;28;20219;-84
2024/01/06 04:25:53;;;;;;;23.53;12.87;;;4.80;99.90;;;;;;5040046;28;20208;-84
2024/01/06 04:28:19;;;;;;;22.97;12.27;;;4.80;99.90;;;;;;5040918;28;20203;-84
2024/01/06 04:30:46;;;;;;;24.87;12.70;;;4.70;99.90;;;;;;5043519;28;20219;-83
2024/01/06 04:33:13;;;;;;;25.17;12.63;;;4.70;99.90;;;;;;5035812;28;20223;-85
2024/01/06 04:35:40;;;;;;;21.87;12.47;;;4.70;99.90;;;;;;5038058;28;20206;-83
2024/01/06 04:38:06;;;;;;;25.13;12.37;;;4.60;99.90;;;;;;5035307;28;20573;-84
2024/01/06 04:40:35;;;;;;;22.43;11.67;;;4.60;99.90;;;;;;5039074;28;20643;-84
2024/01/06 04:43:03;;;;;;;23.27;11.80;;;4.60;99.90;;;;;;5036199;28;20251;-82
2024/01/06 04:45:29;;;;;;;24.37;11.73;;;4.50;99.90;;;;;;5033668;28;20228;-83
2024/01/06 04:47:56;;;;;;;23.37;12.13;;;4.60;99.90;;;;;;5039165;28;20209;-84
2024/01/06 04:50:23;;;;;;;21.50;11.37;;;4.70;99.90;;;;;;5037780;28;20230;-84
2024/01/06 04:52:50;;;;;;;24.03;12.73;;;4.70;99.90;;;;;;5037500;28;20224;-83
2024/01/06 04:55:16;;;;;;;26.30;13.03;;;4.60;99.90;;;;;;5035323;28;20195;-85
2024/01/06 04:57:44;;;;;;;23.53;12.23;;;4.70;99.90;;;;;;5035715;28;20204;-83
2024/01/06 05:00:13;;;;;;;22.50;11.93;;;4.60;99.90;;;;;;5033503;28;20210;-83
2024/01/06 05:02:40;;;;;;;24.53;12.50;;;4.60;99.90;;;;;;5034360;28;20223;-83
2024/01/06 05:05:07;;;;;;;26.57;13.57;;;4.50;99.90;;;;;;5034888;28;20219;-82
2024/01/06 05:07:33;;;;;;;27.37;14.50;;;4.50;99.90;;;;;;5034549;28;20206;-84
2024/01/06 05:10:00;;;;;;;26.70;12.87;;;4.40;99.90;;;;;;5035839;28;20207;-84
2024/01/06 05:12:27;;;;;;;24.53;12.43;;;4.40;99.90;;;;;;5036181;28;20202;-86
2024/01/06 05:14:55;;;;;;;24.97;12.07;;;4.40;99.90;;;;;;5035289;28;20210;-84
2024/01/06 05:17:22;;;;;;;24.37;12.20;;;4.40;99.90;;;;;;5036709;28;20207;-85
2024/01/06 05:19:49;;;;;;;24.77;11.63;;;4.50;99.90;;;;;;5035202;28;20183;-84
2024/01/06 05:22:15;;;;;;;21.93;11.40;;;4.50;99.90;;;;;;5034111;28;20203;-84
2024/01/06 05:24:42;;;;;;;20.67;11.40;;;4.50;99.90;;;;;;5036053;28;20580;-83
2024/01/06 05:27:08;;;;;;;20.90;11.33;;;4.60;99.90;;;;;;5033307;28;20642;-86
2024/01/06 05:29:35;;;;;;;20.47;10.33;;;4.50;99.90;;;;;;5035271;28;20309;-85
2024/01/06 05:32:04;;;;;;;22.00;11.20;;;4.40;99.90;;;;;;5034350;28;20238;-83
2024/01/06 05:34:31;;;;;;;22.73;11.77;;;4.40;99.90;;;;;;5039095;28;20227;-82
2024/01/06 05:36:58;;;;;;;27.33;12.57;;;4.40;99.90;;;;;;5036416;28;20678;-82
2024/01/06 05:39:25;;;;;;;24.63;12.43;;;4.30;99.90;;;;;;5030458;28;20229;-82
2024/01/06 05:41:52;;;;;;;24.77;12.97;;;4.30;99.90;;;;;;5040209;28;20203;-82
2024/01/06 05:44:18;;;;;;;23.33;12.27;;;4.20;99.90;;;;;;5037382;28;20242;-84
2024/01/06 05:46:45;;;;;;;23.70;12.50;;;4.20;99.90;;;;;;5033627;28;20872;-83
2024/01/06 05:49:14;;;;;;;25.80;13.03;;;4.20;99.90;;;;;;5032991;28;20215;-81
2024/01/06 05:51:45;;;;;;;25.50;13.30;;;4.20;99.90;;;;;;5029644;28;20219;-85
2024/01/06 05:54:12;;;;;;;23.90;12.40;;;4.10;99.90;;;;;;5033719;28;20224;-82
2024/01/06 05:56:39;;;;;;;23.23;12.50;;;4.10;99.90;;;;;;5025690;28;20211;-84
2024/01/06 05:59:05;;;;;;;24.50;12.50;;;4.10;99.90;;;;;;5032124;28;20204;-83
2024/01/06 06:01:32;;;;;;;25.27;13.30;;;4.10;99.90;;;;;;5035484;28;20203;-83
2024/01/06 06:03:59;;;;;;;23.60;12.33;;;4.10;99.90;;;;;;5031304;28;20238;-83
2024/01/06 06:06:27;;;;;;;26.87;12.43;;;4.10;99.90;;;;;;5035214;28;20206;-82
2024/01/06 06:08:54;;;;;;;26.10;13.30;;;4.10;99.90;;;;;;5034913;28;20671;-82
2024/01/06 06:11:21;;;;;;;25.77;13.17;;;4.10;99.90;;;;;;5031399;28;20223;-82
2024/01/06 06:13:47;;;;;;;23.33;11.70;;;3.80;99.90;;;;;;5035726;28;20231;-86
2024/01/06 06:16:14;;;;;;;25.17;13.33;;;4.10;99.90;;;;;;5039382;28;20829;-84
2024/01/06 06:18:41;;;;;;;25.63;12.97;;;4.10;99.90;;;;;;5033990;28;20239;-83
2024/01/06 06:21:09;;;;;;;25.67;13.37;;;4.00;99.90;;;;;;5037833;28;20200;-84
2024/01/06 06:23:37;;;;;;;24.37;12.10;;;4.00;99.90;;;;;;5037629;28;20237;-82
2024/01/06 06:26:06;;;;;;;25.03;13.07;;;4.00;99.90;;;;;;5038653;28;20212;-83
2024/01/06 06:28:33;;;;;;;24.00;11.97;;;4.10;99.90;;;;;;5036886;28;20210;-84
2024/01/06 06:31:00;;;;;;;23.97;12.13;;;4.20;99.90;;;;;;5037373;28;20261;-84
2024/01/06 06:33:27;;;;;;;24.63;12.57;;;4.00;99.90;;;;;;5035455;28;20834;-82
2024/01/06 06:35:53;;;;;;;25.40;11.67;;;4.00;99.90;;;;;;5036239;28;20211;-83
2024/01/06 06:38:21;;;;;;;27.00;12.43;;;4.00;99.90;;;;;;5034695;28;20265;-84
2024/01/06 06:40:49;;;;;;;24.63;12.57;;;4.00;99.90;;;;;;5041926;28;20203;-83
2024/01/06 06:43:16;;;;;;;25.50;12.87;;;3.90;99.90;;;;;;5042049;28;20241;-84
2024/01/06 06:45:42;;;;;;;24.77;12.23;;;4.00;99.90;;;;;;5039875;28;20240;-82
2024/01/06 06:48:09;;;;;;;25.53;12.47;;;4.00;99.90;;;;;;5037433;28;20208;-83
2024/01/06 06:50:36;;;;;;;25.10;11.73;;;4.00;99.90;;;;;;5036771;28;20747;-82
2024/01/06 06:53:03;;;;;;;25.77;12.10;;;4.10;99.90;;;;;;5035186;28;20326;-84
2024/01/06 06:55:30;;;;;;;23.70;12.47;;;4.00;99.90;;;;;;5035057;28;20196;-81
2024/01/06 06:57:58;;;;;;;25.57;12.40;;;4.00;99.90;;;;;;5036242;28;20209;-83
2024/01/06 07:00:25;;;;;;;27.23;12.70;;;4.00;99.90;;;;;;5035568;28;20212;-83
2024/01/06 07:02:52;;;;;;;26.63;12.60;;;4.00;99.90;;;;;;5033615;28;20223;-84
2024/01/06 07:05:18;;;;;;;27.77;13.77;;;3.90;99.90;;;;;;5033888;28;20207;-84
2024/01/06 07:07:46;;;;;;;26.37;12.80;;;3.90;99.90;;;;;;5037427;28;20203;-84
2024/01/06 07:10:13;;;;;;;24.00;12.80;;;3.90;99.90;;;;;;5038358;28;20222;-82
2024/01/06 07:12:40;;;;;;;26.17;12.70;;;3.90;99.90;;;;;;5041666;28;20243;-81
2024/01/06 07:15:09;;;;;;;27.10;13.23;;;3.90;99.90;;;;;;5040359;28;20211;-82
2024/01/06 07:17:38;;;;;;;26.87;13.53;;;3.80;99.90;;;;;;5039739;28;20544;-83
2024/01/06 07:20:06;;;;;;;27.03;12.70;;;3.80;99.90;;;;;;5038089;28;20218;-83
2024/01/06 07:22:34;;;;;;;28.07;13.87;;;3.80;99.90;;;;;;5040730;28;20234;-82
2024/01/06 07:25:01;;;;;;;28.90;13.57;;;3.80;99.90;;;;;;5037029;28;20208;-82
2024/01/06 07:27:27;;;;;;;27.70;13.90;;;3.80;99.90;;;;;;5035577;28;20589;-83
2024/01/06 07:29:55;;;;;;;29.60;13.07;;;3.70;99.90;;;;;;5035928;28;20675;-84
2024/01/06 07:32:24;;;;;;;28.73;13.27;;;3.70;99.90;;;;;;5035423;28;20227;-85
2024/01/06 07:34:51;;;;;;;31.10;13.97;;;3.70;99.90;;;;;;5036222;28;20291;-82
2024/01/06 07:37:18;;;;;;;31.37;17.20;;;3.70;99.90;;;;;;5034661;28;20223;-84
2024/01/06 07:39:45;;;;;;;31.23;16.23;;;3.70;99.90;;;;;;5034398;28;20208;-83
2024/01/06 07:42:11;;;;;;;31.20;14.80;;;3.70;99.90;;;;;;5035661;28;20203;-82
2024/01/06 07:44:38;;;;;;;29.73;14.27;;;3.70;99.90;;;;;;5034221;28;20220;-82
2024/01/06 07:47:06;;;;;;;30.60;16.67;;;3.70;99.90;;;;;;5036989;28;20210;-85
2024/01/06 07:49:34;;;;;;;32.40;15.20;;;3.70;99.90;;;;;;5032161;28;20208;-84
2024/01/06 07:52:00;;;;;;;30.17;13.80;;;3.60;99.90;;;;;;5033931;28;20223;-83
2024/01/06 07:54:28;;;;;;;30.20;14.63;;;3.60;99.90;;;;;;5039240;28;20223;-84
2024/01/06 07:56:55;;;;;;;29.37;14.27;;;3.60;99.90;;;;;;5033523;28;20673;-85
2024/01/06 07:59:22;;;;;;;30.87;14.73;;;3.70;99.90;;;;;;5031977;28;20203;-84
2024/01/06 08:01:48;;;;;;;29.17;14.13;;;3.60;99.90;;;;;;5032281;28;20210;-82
2024/01/06 08:04:15;;;;;;;29.47;14.60;;;3.60;99.90;;;;;;5032786;28;20222;-82
2024/01/06 08:06:44;;;;;;;29.63;13.40;;;3.60;99.90;;;;;;5032335;28;20246;-83
2024/01/06 08:09:10;;;;;;;29.20;13.37;;;3.60;99.90;;;;;;5033213;28;20213;-83
2024/01/06 08:11:37;;;;;;;29.10;14.50;;;3.60;99.90;;;;;;5034528;28;20279;-82
2024/01/06 08:14:04;;;;;;;28.23;13.43;;;3.60;99.90;;;;;;5041488;28;20231;-84
2024/01/06 08:16:32;;;;;;;32.63;14.23;;;3.60;99.90;;;;;;5036999;28;20687;-84
2024/01/06 08:19:00;;;;;;;29.93;12.97;;;3.60;99.90;;;;;;5033398;28;20207;-85
2024/01/06 08:21:27;;;;;;;32.37;14.53;;;3.50;99.90;;;;;;5037815;28;20740;-83
2024/01/06 08:23:55;;;;;;;31.13;14.17;;;3.60;99.90;;;;;;5033091;28;20326;-82
2024/01/06 08:26:22;;;;;;;36.03;13.97;;;3.60;99.90;;;;;;5038439;28;20207;-82
2024/01/06 08:28:49;;;;;;;34.63;13.83;;;3.60;99.90;;;;;;5034549;28;20215;-82
2024/01/06 08:31:16;;;;;;;32.90;14.30;;;3.50;99.90;;;;;;5033989;28;20230;-82
2024/01/06 08:33:42;;;;;;;28.07;13.23;;;3.60;99.90;;;;;;5034936;28;20223;-81
2024/01/06 08:36:09;;;;;;;29.27;13.47;;;3.60;99.90;;;;;;5031623;28;20211;-81
2024/01/06 08:38:36;;;;;;;30.77;16.43;;;3.50;99.90;;;;;;5033256;28;20223;-84
2024/01/06 08:41:05;;;;;;;30.57;16.20;;;3.50;99.90;;;;;;5033731;28;20642;-84
2024/01/06 08:43:32;;;;;;;31.03;14.53;;;3.50;99.90;;;;;;5035457;28;20227;-83
2024/01/06 08:45:59;;;;;;;33.53;16.83;;;3.60;99.90;;;;;;5032532;28;20207;-82
2024/01/06 08:48:26;;;;;;;30.30;13.57;;;3.50;99.90;;;;;;5032415;28;20604;-84
2024/01/06 08:50:52;;;;;;;32.67;14.70;;;3.50;99.90;;;;;;5035581;28;20230;-82
2024/01/06 08:53:19;;;;;;;32.63;13.77;;;3.50;99.90;;;;;;5035083;28;20718;-82
2024/01/06 08:55:46;;;;;;;33.13;14.83;;;3.50;99.90;;;;;;5038456;28;20591;-80
2024/01/06 08:58:14;;;;;;;31.93;16.10;;;3.50;99.90;;;;;;5032067;28;20734;-82
2024/01/06 09:00:41;;;;;;;30.20;12.10;;;3.50;99.90;;;;;;5034546;28;20204;-81
2024/01/06 09:03:09;;;;;;;35.43;14.63;;;3.50;99.90;;;;;;5033002;28;20335;-83
2024/01/06 09:05:36;;;;;;;31.60;15.70;;;3.50;99.90;;;;;;5032384;28;20585;-84
2024/01/06 09:08:03;;;;;;;32.00;14.30;;;3.50;99.90;;;;;;5032530;28;20299;-82
2024/01/06 09:10:30;;;;;;;33.83;14.87;;;3.50;99.90;;;;;;5037032;28;20295;-81
2024/01/06 09:12:57;;;;;;;35.60;14.97;;;3.50;99.90;;;;;;5029542;28;20318;-82
2024/01/06 09:15:25;;;;;;;32.13;14.20;;;3.50;99.90;;;;;;5043777;28;20214;-81
2024/01/06 09:17:52;;;;;;;30.97;14.80;;;3.50;99.90;;;;;;5032958;28;20670;-81
2024/01/06 09:20:22;;;;;;;33.23;14.73;;;3.50;99.90;;;;;;5036555;28;20246;-82
2024/01/06 09:22:49;;;;;;;32.33;14.17;;;3.50;99.90;;;;;;5037803;28;20270;-84
2024/01/06 09:25:16;;;;;;;25.70;11.60;;;3.50;99.90;;;;;;5035131;28;20282;-81
2024/01/06 09:27:43;;;;;;;31.57;16.57;;;3.40;99.90;;;;;;5035554;28;20203;-84
2024/01/06 09:30:10;;;;;;;25.83;11.20;;;3.50;99.90;;;;;;5036652;28;20206;-86
2024/01/06 09:32:38;;;;;;;30.73;14.13;;;3.40;99.90;;;;;;5037035;28;20289;-84
2024/01/06 09:35:06;;;;;;;30.50;13.63;;;3.50;99.90;;;;;;5031599;28;20200;-83
2024/01/06 09:37:33;;;;;;;34.53;16.63;;;3.40;99.90;;;;;;5033511;28;20203;-82
2024/01/06 09:40:00;;;;;;;36.00;15.70;;;3.40;99.90;;;;;;5032217;28;20207;-81
2024/01/06 09:42:27;;;;;;;36.17;19.60;;;3.40;99.90;;;;;;5032633;28;20192;-80
2024/01/06 09:44:53;;;;;;;35.33;14.80;;;3.50;99.90;;;;;;5032956;28;20210;-84
2024/01/06 09:47:23;;;;;;;40.90;18.53;;;3.40;99.90;;;;;;5032170;28;20292;-80
2024/01/06 09:49:54;;;;;;;40.27;16.97;;;3.50;99.90;;;;;;5034122;28;20200;-80
2024/01/06 09:52:23;;;;;;;37.97;15.77;;;3.50;99.90;;;;;;5035919;28;20230;-81
2024/01/06 09:54:53;;;;;;;36.60;16.00;;;3.50;99.90;;;;;;5035108;28;20196;-83
2024/01/06 09:57:20;;;;;;;36.33;15.57;;;3.50;99.90;;;;;;5035678;28;20212;-83
2024/01/06 09:59:47;;;;;;;35.50;14.87;;;3.40;99.90;;;;;;5036716;28;20204;-82
2024/01/06 10:02:17;;;;;;;40.50;15.90;;;3.40;99.90;;;;;;5040691;28;20675;-85
2024/01/06 10:04:44;;;;;;;40.23;16.67;;;3.50;99.90;;;;;;5037988;28;20280;-84
2024/01/06 10:07:13;;;;;;;41.97;16.73;;;3.50;99.90;;;;;;5042316;28;20620;-82
2024/01/06 10:09:41;;;;;;;39.13;16.30;;;3.60;99.90;;;;;;5041045;28;20290;-83
2024/01/06 10:12:09;;;;;;;31.37;13.97;;;3.50;99.90;;;;;;5042418;28;20242;-82
2024/01/06 10:14:36;;;;;;;40.97;17.77;;;3.40;99.90;;;;;;5044464;28;20230;-81
2024/01/06 10:17:06;;;;;;;39.17;16.37;;;3.50;99.90;;;;;;5034470;28;20211;-83
2024/01/06 10:19:33;;;;;;;35.53;15.97;;;3.50;99.90;;;;;;5035441;28;20579;-82
2024/01/06 10:22:02;;;;;;;38.13;17.07;;;3.40;99.90;;;;;;5039459;28;20206;-81
2024/01/06 10:24:31;;;;;;;38.17;15.93;;;3.50;99.90;;;;;;5039940;28;20775;-83
2024/01/06 10:26:58;;;;;;;38.17;16.33;;;3.50;99.90;;;;;;5036418;28;20227;-82
2024/01/06 10:29:26;;;;;;;37.10;19.40;;;3.50;99.90;;;;;;5041246;28;20665;-80
2024/01/06 10:31:54;;;;;;;40.77;18.50;;;3.50;99.90;;;;;;5037797;28;20231;-81
2024/01/06 10:34:21;;;;;;;38.77;17.30;;;3.50;99.90;;;;;;5034856;28;20216;-84
2024/01/06 10:36:48;;;;;;;43.73;17.37;;;3.60;99.90;;;;;;5037506;28;20200;-83
2024/01/06 10:39:16;;;;;;;37.27;17.10;;;3.50;99.90;;;;;;5035109;28;20207;-81
2024/01/06 10:41:44;;;;;;;37.40;16.63;;;3.50;99.90;;;;;;5037882;28;20204;-81
2024/01/06 10:44:12;;;;;;;43.37;17.70;;;3.60;99.90;;;;;;5036798;28;20291;-80
2024/01/06 10:46:40;;;;;;;38.87;16.90;;;3.50;99.90;;;;;;5037500;28;20202;-82
2024/01/06 10:49:10;;;;;;;40.10;16.27;;;3.50;99.90;;;;;;5035649;28;20576;-82
2024/01/06 10:51:38;;;;;;;38.17;18.47;;;3.50;99.90;;;;;;5035311;28;20713;-82
2024/01/06 10:54:06;;;;;;;36.83;16.07;;;3.50;99.90;;;;;;5035200;28;20224;-83
2024/01/06 10:56:38;;;;;;;34.73;14.87;;;3.50;99.90;;;;;;5034529;28;20211;-81
2024/01/06 10:59:08;;;;;;;30.53;12.67;;;3.50;99.90;;;;;;5034621;28;20213;-80
2024/01/06 11:01:36;;;;;;;36.27;16.43;;;3.50;99.90;;;;;;5034634;28;20688;-82
2024/01/06 11:04:05;;;;;;;35.87;15.57;;;3.40;99.90;;;;;;5043924;28;20228;-82
2024/01/06 11:06:33;;;;;;;33.67;16.13;;;3.50;99.90;;;;;;5037981;28;20658;-80
2024/01/06 11:09:07;;;;;;;36.03;14.93;;;3.40;99.90;;;;;;5040289;28;20672;-80
2024/01/06 11:11:36;;;;;;;35.30;15.07;;;3.40;99.90;;;;;;5035563;28;20208;-81
2024/01/06 11:14:22;;;;;;;35.80;16.60;;;3.50;99.90;;;;;;5034203;28;20232;-82
2024/01/06 11:16:49;;;;;;;34.60;17.33;;;3.40;99.90;;;;;;5037287;28;20221;-81
2024/01/06 11:19:46;;;;;;;32.80;16.13;;;3.50;99.90;;;;;;5038148;28;20230;-80
2024/01/06 11:22:28;;;;;;;36.53;14.30;;;3.40;99.90;;;;;;5035220;28;20199;-80
2024/01/06 11:24:56;;;;;;;32.70;14.07;;;3.40;99.90;;;;;;5046915;28;20207;-80
2024/01/06 11:27:26;;;;;;;34.23;14.63;;;3.40;99.90;;;;;;5042093;28;20214;-82
2024/01/06 11:29:55;;;;;;;39.53;16.97;;;3.40;99.90;;;;;;5039168;28;20211;-81
2024/01/06 11:32:27;;;;;;;40.20;16.23;;;3.40;99.90;;;;;;5038315;28;20247;-84
2024/01/06 11:34:56;;;;;;;34.23;15.47;;;3.40;99.90;;;;;;5041059;28;20211;-82
2024/01/06 11:37:34;;;;;;;41.63;18.83;;;3.40;99.90;;;;;;5037694;28;20209;-83
2024/01/06 11:40:03;;;;;;;41.17;18.30;;;3.40;99.90;;;;;;5034512;28;20195;-82
2024/01/06 11:42:34;;;;;;;42.00;19.13;;;3.40;99.90;;;;;;5041388;28;20216;-82
2024/01/06 11:45:06;;;;;;;40.87;15.67;;;3.40;99.90;;;;;;5038106;28;20223;-82
2024/01/06 11:47:33;;;;;;;36.00;16.77;;;3.40;99.90;;;;;;5036673;28;20207;-82
2024/01/06 11:50:03;;;;;;;38.47;15.23;;;3.40;99.90;;;;;;5032061;28;20199;-79
2024/01/06 11:52:30;;;;;;;39.63;16.53;;;3.40;99.90;;;;;;5034365;28;20270;-82
2024/01/06 11:54:58;;;;;;;38.93;16.83;;;3.40;99.90;;;;;;5037543;28;20202;-83
2024/01/06 11:57:26;;;;;;;46.87;17.87;;;3.40;99.90;;;;;;5034736;28;20571;-83
2024/01/06 11:59:53;;;;;;;43.47;17.10;;;3.30;99.90;;;;;;5035475;28;20203;-82
2024/01/06 12:02:22;;;;;;;50.07;23.40;;;3.20;99.90;;;;;;5034290;28;20539;-82
2024/01/06 12:04:50;;;;;;;47.23;19.47;;;3.20;99.90;;;;;;5033567;28;20203;-83
2024/01/06 12:07:17;;;;;;;50.90;17.73;;;3.20;99.90;;;;;;5025338;28;20669;-84
2024/01/06 12:09:44;;;;;;;44.00;17.80;;;3.20;99.90;;;;;;5029171;28;20613;-82
2024/01/06 12:12:13;;;;;;;39.63;16.37;;;3.10;99.90;;;;;;5032852;28;20211;-81
2024/01/06 12:14:42;;;;;;;42.27;17.13;;;3.10;99.90;;;;;;5040591;28;20222;-81
2024/01/06 12:17:09;;;;;;;42.03;19.50;;;3.10;99.90;;;;;;5042147;28;20219;-81
2024/01/06 12:19:37;;;;;;;39.33;17.33;;;3.10;99.90;;;;;;5043539;28;20203;-83
2024/01/06 12:22:04;;;;;;;43.27;20.73;;;3.10;99.90;;;;;;5046647;28;20253;-80
2024/01/06 12:24:32;;;;;;;44.53;16.57;;;3.10;99.90;;;;;;5040004;28;20223;-80
2024/01/06 12:26:59;;;;;;;41.37;19.97;;;3.00;99.90;;;;;;5045653;28;20207;-80
2024/01/06 12:29:28;;;;;;;42.07;16.97;;;3.00;99.90;;;;;;5039997;28;20334;-80
2024/01/06 12:31:56;;;;;;;42.83;18.83;;;3.00;99.90;;;;;;5037867;28;20211;-80
2024/01/06 12:34:23;;;;;;;37.90;18.03;;;2.90;99.90;;;;;;5042326;28;20229;-79
2024/01/06 12:36:54;;;;;;;38.77;17.53;;;2.90;99.90;;;;;;5039615;28;20650;-80
2024/01/06 12:39:22;;;;;;;29.53;12.23;;;2.80;99.90;;;;;;5029899;28;20204;-80
2024/01/06 12:41:51;;;;;;;24.67;10.93;;;2.90;99.90;;;;;;5042980;28;20231;-80
2024/01/06 12:44:17;;;;;;;29.37;11.00;;;2.80;99.90;;;;;;5032108;28;20647;-80